sensor_id;sensor_type;location;lat;lon;timestamp;temperature;humidity
22290;DHT22;11313;50.116;8.424;2022-12-10T00:01:16;24.20;44.80
22290;DHT22;11313;50.116;8.424;2022-12-10T00:03:42;24.20;44.70
22290;DHT22;11313;50.116;8.424;2022-12-10T00:06:10;24.20;44.70
22290;DHT22;11313;50.116;8.424;2022-12-10T00:08:36;24.20;44.80
22290;DHT22;11313;50.116;8.424;2022-12-10T00:11:05;24.20;44.80
22290;DHT22;11313;50.116;8.424;2022-12-10T00:13:32;24.20;44.80
22290;DHT22;11313;50.116;8.424;2022-12-10T00:16:00;24.20;44.80
22290;DHT22;11313;50.116;8.424;2022-12-10T00:18:26;24.20;45.40
22290;DHT22;11313;50.116;8.424;2022-12-10T00:20:51;24.20;44.80
22290;DHT22;11313;50.116;8.424;2022-12-10T00:23:17;24.20;44.80
22290;DHT22;11313;50.116;8.424;2022-12-10T00:25:42;24.20;44.80
22290;DHT22;11313;50.116;8.424;2022-12-10T00:28:08;24.10;44.80
22290;DHT22;11313;50.116;8.424;2022-12-10T00:30:34;24.20;44.80
22290;DHT22;11313;50.116;8.424;2022-12-10T00:32:59;24.10;44.80
22290;DHT22;11313;50.116;8.424;2022-12-10T00:35:25;24.10;44.80
22290;DHT22;11313;50.116;8.424;2022-12-10T00:37:50;24.10;44.90
22290;DHT22;11313;50.116;8.424;2022-12-10T00:40:16;24.10;44.90
22290;DHT22;11313;50.116;8.424;2022-12-10T00:42:41;24.10;44.90
22290;DHT22;11313;50.116;8.424;2022-12-10T00:45:07;24.10;44.90
22290;DHT22;11313;50.116;8.424;2022-12-10T00:47:32;24.10;44.90
22290;DHT22;11313;50.116;8.424;2022-12-10T00:49:58;24.10;44.90
22290;DHT22;11313;50.116;8.424;2022-12-10T00:52:23;24.10;45.00
22290;DHT22;11313;50.116;8.424;2022-12-10T00:54:49;24.10;45.00
22290;DHT22;11313;50.116;8.424;2022-12-10T00:57:15;24.10;45.00
22290;DHT22;11313;50.116;8.424;2022-12-10T00:59:40;24.10;45.00
22290;DHT22;11313;50.116;8.424;2022-12-10T01:02:06;24.00;45.00
22290;DHT22;11313;50.116;8.424;2022-12-10T01:04:31;24.00;45.00
22290;DHT22;11313;50.116;8.424;2022-12-10T01:06:56;24.00;45.00
22290;DHT22;11313;50.116;8.424;2022-12-10T01:09:23;24.00;45.00
22290;DHT22;11313;50.116;8.424;2022-12-10T01:11:50;24.00;45.10
22290;DHT22;11313;50.116;8.424;2022-12-10T01:14:17;24.00;45.10
22290;DHT22;11313;50.116;8.424;2022-12-10T01:16:43;24.00;45.10
22290;DHT22;11313;50.116;8.424;2022-12-10T01:19:08;24.00;45.10
22290;DHT22;11313;50.116;8.424;2022-12-10T01:21:34;24.00;45.10
22290;DHT22;11313;50.116;8.424;2022-12-10T01:24:00;23.90;45.10
22290;DHT22;11313;50.116;8.424;2022-12-10T01:26:26;23.90;45.80
22290;DHT22;11313;50.116;8.424;2022-12-10T01:28:52;23.90;45.20
22290;DHT22;11313;50.116;8.424;2022-12-10T01:31:25;23.90;45.10
22290;DHT22;11313;50.116;8.424;2022-12-10T01:33:51;23.90;45.20
22290;DHT22;11313;50.116;8.424;2022-12-10T01:36:23;23.90;45.20
22290;DHT22;11313;50.116;8.424;2022-12-10T01:38:49;23.90;45.20
22290;DHT22;11313;50.116;8.424;2022-12-10T01:41:15;23.90;45.30
22290;DHT22;11313;50.116;8.424;2022-12-10T01:44:01;23.90;45.60
22290;DHT22;11313;50.116;8.424;2022-12-10T01:46:28;23.90;45.30
22290;DHT22;11313;50.116;8.424;2022-12-10T01:48:54;23.90;45.30
22290;DHT22;11313;50.116;8.424;2022-12-10T01:51:20;23.90;45.30
22290;DHT22;11313;50.116;8.424;2022-12-10T01:53:46;23.90;45.30
22290;DHT22;11313;50.116;8.424;2022-12-10T01:56:12;23.80;45.30
22290;DHT22;11313;50.116;8.424;2022-12-10T01:58:38;23.80;45.30
22290;DHT22;11313;50.116;8.424;2022-12-10T02:03:44;23.90;45.30
22290;DHT22;11313;50.116;8.424;2022-12-10T02:08:50;23.80;45.30
22290;DHT22;11313;50.116;8.424;2022-12-10T02:11:22;23.90;45.30
22290;DHT22;11313;50.116;8.424;2022-12-10T02:13:57;23.90;45.30
22290;DHT22;11313;50.116;8.424;2022-12-10T02:16:36;23.90;45.30
22290;DHT22;11313;50.116;8.424;2022-12-10T02:19:06;23.90;45.30
22290;DHT22;11313;50.116;8.424;2022-12-10T02:21:33;23.90;45.30
22290;DHT22;11313;50.116;8.424;2022-12-10T02:24:00;23.90;46.00
22290;DHT22;11313;50.116;8.424;2022-12-10T02:29:20;23.90;45.30
22290;DHT22;11313;50.116;8.424;2022-12-10T02:31:53;23.90;45.30
22290;DHT22;11313;50.116;8.424;2022-12-10T02:34:20;23.90;45.30
22290;DHT22;11313;50.116;8.424;2022-12-10T02:36:47;23.90;45.30
22290;DHT22;11313;50.116;8.424;2022-12-10T02:39:14;23.90;45.20
22290;DHT22;11313;50.116;8.424;2022-12-10T02:41:42;23.90;45.20
22290;DHT22;11313;50.116;8.424;2022-12-10T02:44:09;23.90;45.20
22290;DHT22;11313;50.116;8.424;2022-12-10T02:46:36;23.90;45.20
22290;DHT22;11313;50.116;8.424;2022-12-10T02:49:03;23.90;45.20
22290;DHT22;11313;50.116;8.424;2022-12-10T02:51:29;24.00;45.20
22290;DHT22;11313;50.116;8.424;2022-12-10T02:54:05;24.00;45.20
22290;DHT22;11313;50.116;8.424;2022-12-10T02:56:45;24.00;45.20
22290;DHT22;11313;50.116;8.424;2022-12-10T03:04:26;24.00;45.10
22290;DHT22;11313;50.116;8.424;2022-12-10T03:06:58;23.90;45.10
22290;DHT22;11313;50.116;8.424;2022-12-10T03:12:32;24.00;45.10
22290;DHT22;11313;50.116;8.424;2022-12-10T03:14:58;24.00;45.10
22290;DHT22;11313;50.116;8.424;2022-12-10T03:17:24;24.00;45.10
22290;DHT22;11313;50.116;8.424;2022-12-10T03:19:50;24.00;45.00
22290;DHT22;11313;50.116;8.424;2022-12-10T03:22:18;24.00;45.10
22290;DHT22;11313;50.116;8.424;2022-12-10T03:24:45;24.00;45.10
22290;DHT22;11313;50.116;8.424;2022-12-10T03:27:11;24.00;45.10
22290;DHT22;11313;50.116;8.424;2022-12-10T03:29:39;24.10;45.10
22290;DHT22;11313;50.116;8.424;2022-12-10T03:32:06;24.00;45.10
22290;DHT22;11313;50.116;8.424;2022-12-10T03:34:32;24.00;45.70
22290;DHT22;11313;50.116;8.424;2022-12-10T03:36:58;24.00;45.00
22290;DHT22;11313;50.116;8.424;2022-12-10T03:39:24;24.00;45.00
22290;DHT22;11313;50.116;8.424;2022-12-10T03:41:49;24.00;45.10
22290;DHT22;11313;50.116;8.424;2022-12-10T03:44:26;24.00;45.10
22290;DHT22;11313;50.116;8.424;2022-12-10T03:46:51;24.10;45.20
22290;DHT22;11313;50.116;8.424;2022-12-10T03:49:16;24.00;45.10
22290;DHT22;11313;50.116;8.424;2022-12-10T03:51:42;24.00;45.10
22290;DHT22;11313;50.116;8.424;2022-12-10T03:54:07;24.00;45.10
22290;DHT22;11313;50.116;8.424;2022-12-10T03:56:33;24.00;45.10
22290;DHT22;11313;50.116;8.424;2022-12-10T03:58:58;24.00;45.10
22290;DHT22;11313;50.116;8.424;2022-12-10T04:01:24;24.00;45.20
22290;DHT22;11313;50.116;8.424;2022-12-10T04:03:49;24.00;45.10
22290;DHT22;11313;50.116;8.424;2022-12-10T04:06:16;23.90;45.10
22290;DHT22;11313;50.116;8.424;2022-12-10T04:08:41;24.00;45.20
22290;DHT22;11313;50.116;8.424;2022-12-10T04:11:08;24.00;45.10
22290;DHT22;11313;50.116;8.424;2022-12-10T04:13:34;24.00;45.20
22290;DHT22;11313;50.116;8.424;2022-12-10T04:16:18;24.00;45.20
22290;DHT22;11313;50.116;8.424;2022-12-10T04:18:57;23.90;45.20
22290;DHT22;11313;50.116;8.424;2022-12-10T04:21:23;23.90;45.20
22290;DHT22;11313;50.116;8.424;2022-12-10T04:24:08;23.90;45.20
22290;DHT22;11313;50.116;8.424;2022-12-10T04:26:52;23.90;45.20
22290;DHT22;11313;50.116;8.424;2022-12-10T04:29:18;23.90;45.30
22290;DHT22;11313;50.116;8.424;2022-12-10T04:31:44;23.90;45.30
22290;DHT22;11313;50.116;8.424;2022-12-10T04:34:09;23.90;45.30
22290;DHT22;11313;50.116;8.424;2022-12-10T04:36:35;23.90;45.20
22290;DHT22;11313;50.116;8.424;2022-12-10T04:39:00;23.90;45.20
22290;DHT22;11313;50.116;8.424;2022-12-10T04:41:25;23.90;45.30
22290;DHT22;11313;50.116;8.424;2022-12-10T04:43:52;23.90;45.20
22290;DHT22;11313;50.116;8.424;2022-12-10T04:46:17;23.90;45.20
22290;DHT22;11313;50.116;8.424;2022-12-10T04:48:43;23.90;45.20
22290;DHT22;11313;50.116;8.424;2022-12-10T04:51:08;23.90;45.20
22290;DHT22;11313;50.116;8.424;2022-12-10T04:53:34;23.90;45.20
22290;DHT22;11313;50.116;8.424;2022-12-10T04:55:59;23.90;45.20
22290;DHT22;11313;50.116;8.424;2022-12-10T04:58:26;23.90;45.20
22290;DHT22;11313;50.116;8.424;2022-12-10T05:01:02;23.90;45.20
22290;DHT22;11313;50.116;8.424;2022-12-10T05:03:28;24.00;45.20
22290;DHT22;11313;50.116;8.424;2022-12-10T05:05:54;24.00;45.20
22290;DHT22;11313;50.116;8.424;2022-12-10T05:08:19;23.90;45.10
22290;DHT22;11313;50.116;8.424;2022-12-10T05:10:44;24.00;45.10
22290;DHT22;11313;50.116;8.424;2022-12-10T05:13:10;24.00;45.10
22290;DHT22;11313;50.116;8.424;2022-12-10T05:15:37;24.00;45.10
22290;DHT22;11313;50.116;8.424;2022-12-10T05:18:03;23.90;45.10
22290;DHT22;11313;50.116;8.424;2022-12-10T05:20:28;23.90;45.10
22290;DHT22;11313;50.116;8.424;2022-12-10T05:22:54;24.00;45.20
22290;DHT22;11313;50.116;8.424;2022-12-10T05:25:37;24.00;45.20
22290;DHT22;11313;50.116;8.424;2022-12-10T05:28:21;24.00;45.20
22290;DHT22;11313;50.116;8.424;2022-12-10T05:30:46;24.00;45.20
22290;DHT22;11313;50.116;8.424;2022-12-10T05:33:13;23.90;45.10
22290;DHT22;11313;50.116;8.424;2022-12-10T05:35:38;24.00;45.20
22290;DHT22;11313;50.116;8.424;2022-12-10T05:38:04;23.90;45.10
22290;DHT22;11313;50.116;8.424;2022-12-10T05:40:33;23.90;45.20
22290;DHT22;11313;50.116;8.424;2022-12-10T05:42:59;23.90;45.10
22290;DHT22;11313;50.116;8.424;2022-12-10T05:45:24;23.90;45.10
22290;DHT22;11313;50.116;8.424;2022-12-10T05:47:49;24.00;45.20
22290;DHT22;11313;50.116;8.424;2022-12-10T05:50:15;23.90;45.10
22290;DHT22;11313;50.116;8.424;2022-12-10T05:52:40;23.90;45.20
22290;DHT22;11313;50.116;8.424;2022-12-10T05:55:06;23.90;45.20
22290;DHT22;11313;50.116;8.424;2022-12-10T05:57:31;23.90;45.20
22290;DHT22;11313;50.116;8.424;2022-12-10T05:59:56;24.00;45.20
22290;DHT22;11313;50.116;8.424;2022-12-10T06:02:22;23.90;45.20
22290;DHT22;11313;50.116;8.424;2022-12-10T06:04:47;23.90;45.20
22290;DHT22;11313;50.116;8.424;2022-12-10T06:07:13;23.90;45.20
22290;DHT22;11313;50.116;8.424;2022-12-10T06:09:38;23.90;45.80
22290;DHT22;11313;50.116;8.424;2022-12-10T06:12:04;24.00;45.20
22290;DHT22;11313;50.116;8.424;2022-12-10T06:14:29;23.90;45.20
22290;DHT22;11313;50.116;8.424;2022-12-10T06:16:55;23.90;45.20
22290;DHT22;11313;50.116;8.424;2022-12-10T06:19:20;23.90;45.20
22290;DHT22;11313;50.116;8.424;2022-12-10T06:21:45;23.90;45.20
22290;DHT22;11313;50.116;8.424;2022-12-10T06:24:11;23.90;45.20
22290;DHT22;11313;50.116;8.424;2022-12-10T06:26:36;23.90;45.90
22290;DHT22;11313;50.116;8.424;2022-12-10T06:29:02;23.90;45.30
22290;DHT22;11313;50.116;8.424;2022-12-10T06:31:30;23.90;45.30
22290;DHT22;11313;50.116;8.424;2022-12-10T06:33:55;23.90;45.20
22290;DHT22;11313;50.116;8.424;2022-12-10T06:36:20;23.90;45.30
22290;DHT22;11313;50.116;8.424;2022-12-10T06:38:46;23.90;45.20
22290;DHT22;11313;50.116;8.424;2022-12-10T06:41:13;23.90;45.30
22290;DHT22;11313;50.116;8.424;2022-12-10T06:43:39;23.90;45.30
22290;DHT22;11313;50.116;8.424;2022-12-10T06:48:51;23.90;45.20
22290;DHT22;11313;50.116;8.424;2022-12-10T06:51:17;23.90;45.20
22290;DHT22;11313;50.116;8.424;2022-12-10T06:53:42;23.90;45.20
22290;DHT22;11313;50.116;8.424;2022-12-10T06:56:11;23.90;45.20
22290;DHT22;11313;50.116;8.424;2022-12-10T06:58:37;23.90;45.20
22290;DHT22;11313;50.116;8.424;2022-12-10T07:01:06;23.90;45.80
22290;DHT22;11313;50.116;8.424;2022-12-10T07:03:32;23.90;45.10
22290;DHT22;11313;50.116;8.424;2022-12-10T07:05:58;23.90;45.20
22290;DHT22;11313;50.116;8.424;2022-12-10T07:08:24;23.90;45.10
22290;DHT22;11313;50.116;8.424;2022-12-10T07:10:49;23.90;45.20
22290;DHT22;11313;50.116;8.424;2022-12-10T07:13:15;24.00;44.60
22290;DHT22;11313;50.116;8.424;2022-12-10T07:15:40;24.00;44.20
22290;DHT22;11313;50.116;8.424;2022-12-10T07:18:05;23.90;43.80
22290;DHT22;11313;50.116;8.424;2022-12-10T07:20:31;23.90;43.80
22290;DHT22;11313;50.116;8.424;2022-12-10T07:22:56;24.00;43.90
22290;DHT22;11313;50.116;8.424;2022-12-10T07:25:22;24.00;43.90
22290;DHT22;11313;50.116;8.424;2022-12-10T07:27:47;23.90;43.70
22290;DHT22;11313;50.116;8.424;2022-12-10T07:30:13;23.90;43.60
22290;DHT22;11313;50.116;8.424;2022-12-10T07:32:38;23.90;43.50
22290;DHT22;11313;50.116;8.424;2022-12-10T07:35:04;23.90;43.50
22290;DHT22;11313;50.116;8.424;2022-12-10T07:37:29;23.90;43.50
22290;DHT22;11313;50.116;8.424;2022-12-10T07:39:55;23.90;43.50
22290;DHT22;11313;50.116;8.424;2022-12-10T07:42:20;23.90;43.40
22290;DHT22;11313;50.116;8.424;2022-12-10T07:44:47;23.90;43.20
22290;DHT22;11313;50.116;8.424;2022-12-10T07:47:12;23.90;43.20
22290;DHT22;11313;50.116;8.424;2022-12-10T07:49:38;23.90;43.30
22290;DHT22;11313;50.116;8.424;2022-12-10T07:52:03;23.90;43.30
22290;DHT22;11313;50.116;8.424;2022-12-10T07:54:29;23.90;43.30
22290;DHT22;11313;50.116;8.424;2022-12-10T07:56:54;23.90;43.10
22290;DHT22;11313;50.116;8.424;2022-12-10T07:59:19;23.80;43.20
22290;DHT22;11313;50.116;8.424;2022-12-10T08:01:45;23.90;43.20
22290;DHT22;11313;50.116;8.424;2022-12-10T08:04:10;23.90;43.10
22290;DHT22;11313;50.116;8.424;2022-12-10T08:06:36;23.90;43.20
22290;DHT22;11313;50.116;8.424;2022-12-10T08:09:01;23.90;43.10
22290;DHT22;11313;50.116;8.424;2022-12-10T08:11:27;23.80;42.90
22290;DHT22;11313;50.116;8.424;2022-12-10T08:13:53;23.80;43.00
22290;DHT22;11313;50.116;8.424;2022-12-10T08:16:20;23.80;43.00
22290;DHT22;11313;50.116;8.424;2022-12-10T08:18:48;23.80;43.00
22290;DHT22;11313;50.116;8.424;2022-12-10T08:21:18;23.80;42.90
22290;DHT22;11313;50.116;8.424;2022-12-10T08:23:44;23.80;43.00
22290;DHT22;11313;50.116;8.424;2022-12-10T08:26:10;23.80;42.90
22290;DHT22;11313;50.116;8.424;2022-12-10T08:28:35;23.80;43.00
22290;DHT22;11313;50.116;8.424;2022-12-10T08:31:01;23.80;43.00
22290;DHT22;11313;50.116;8.424;2022-12-10T08:33:27;23.80;42.90
22290;DHT22;11313;50.116;8.424;2022-12-10T08:35:56;23.80;42.90
22290;DHT22;11313;50.116;8.424;2022-12-10T08:38:21;23.80;42.90
22290;DHT22;11313;50.116;8.424;2022-12-10T08:40:47;23.80;43.00
22290;DHT22;11313;50.116;8.424;2022-12-10T08:43:13;23.80;43.00
22290;DHT22;11313;50.116;8.424;2022-12-10T08:45:38;23.80;42.90
22290;DHT22;11313;50.116;8.424;2022-12-10T08:48:04;23.80;43.00
22290;DHT22;11313;50.116;8.424;2022-12-10T08:50:29;23.80;43.00
22290;DHT22;11313;50.116;8.424;2022-12-10T08:52:54;23.80;43.00
22290;DHT22;11313;50.116;8.424;2022-12-10T08:55:20;23.70;42.90
22290;DHT22;11313;50.116;8.424;2022-12-10T08:57:45;23.80;42.90
22290;DHT22;11313;50.116;8.424;2022-12-10T09:00:11;23.80;43.00
22290;DHT22;11313;50.116;8.424;2022-12-10T09:02:38;23.80;43.00
22290;DHT22;11313;50.116;8.424;2022-12-10T09:05:04;23.70;42.90
22290;DHT22;11313;50.116;8.424;2022-12-10T09:07:29;23.80;43.00
22290;DHT22;11313;50.116;8.424;2022-12-10T09:09:55;23.80;42.90
22290;DHT22;11313;50.116;8.424;2022-12-10T09:12:20;23.70;42.90
22290;DHT22;11313;50.116;8.424;2022-12-10T09:14:46;23.70;42.90
22290;DHT22;11313;50.116;8.424;2022-12-10T09:17:11;23.80;43.00
22290;DHT22;11313;50.116;8.424;2022-12-10T09:19:36;23.80;42.90
22290;DHT22;11313;50.116;8.424;2022-12-10T09:22:02;23.80;42.90
22290;DHT22;11313;50.116;8.424;2022-12-10T09:24:28;23.80;42.90
22290;DHT22;11313;50.116;8.424;2022-12-10T09:26:53;23.70;42.80
22290;DHT22;11313;50.116;8.424;2022-12-10T09:29:19;23.80;42.80
22290;DHT22;11313;50.116;8.424;2022-12-10T09:31:44;23.80;42.90
22290;DHT22;11313;50.116;8.424;2022-12-10T09:34:10;23.70;42.80
22290;DHT22;11313;50.116;8.424;2022-12-10T09:36:35;23.80;42.80
22290;DHT22;11313;50.116;8.424;2022-12-10T09:39:01;23.80;42.80
22290;DHT22;11313;50.116;8.424;2022-12-10T09:41:39;23.80;42.80
22290;DHT22;11313;50.116;8.424;2022-12-10T09:44:11;23.80;42.80
22290;DHT22;11313;50.116;8.424;2022-12-10T09:46:41;23.80;42.70
22290;DHT22;11313;50.116;8.424;2022-12-10T09:49:23;23.80;42.70
22290;DHT22;11313;50.116;8.424;2022-12-10T09:51:50;23.80;42.80
22290;DHT22;11313;50.116;8.424;2022-12-10T09:54:32;23.80;42.70
22290;DHT22;11313;50.116;8.424;2022-12-10T09:56:59;23.80;42.70
22290;DHT22;11313;50.116;8.424;2022-12-10T09:59:36;23.80;42.50
22290;DHT22;11313;50.116;8.424;2022-12-10T10:04:28;23.70;41.40
22290;DHT22;11313;50.116;8.424;2022-12-10T10:06:54;23.70;41.20
22290;DHT22;11313;50.116;8.424;2022-12-10T10:09:19;23.70;40.80
22290;DHT22;11313;50.116;8.424;2022-12-10T10:11:45;23.70;41.00
22290;DHT22;11313;50.116;8.424;2022-12-10T10:14:12;23.70;40.70
22290;DHT22;11313;50.116;8.424;2022-12-10T10:16:43;23.70;40.40
22290;DHT22;11313;50.116;8.424;2022-12-10T10:19:15;23.70;40.40
22290;DHT22;11313;50.116;8.424;2022-12-10T10:21:47;23.70;40.20
22290;DHT22;11313;50.116;8.424;2022-12-10T10:24:17;23.60;40.00
22290;DHT22;11313;50.116;8.424;2022-12-10T10:26:43;23.70;40.00
22290;DHT22;11313;50.116;8.424;2022-12-10T10:29:10;23.70;39.80
22290;DHT22;11313;50.116;8.424;2022-12-10T10:31:38;23.70;39.80
22290;DHT22;11313;50.116;8.424;2022-12-10T10:34:06;23.70;39.70
22290;DHT22;11313;50.116;8.424;2022-12-10T10:36:36;23.70;40.30
22290;DHT22;11313;50.116;8.424;2022-12-10T10:41:44;23.70;40.70
22290;DHT22;11313;50.116;8.424;2022-12-10T10:44:16;23.70;40.70
22290;DHT22;11313;50.116;8.424;2022-12-10T10:46:44;23.70;40.30
22290;DHT22;11313;50.116;8.424;2022-12-10T10:49:26;23.80;40.10
22290;DHT22;11313;50.116;8.424;2022-12-10T10:51:53;23.70;39.80
22290;DHT22;11313;50.116;8.424;2022-12-10T10:54:33;23.70;39.60
22290;DHT22;11313;50.116;8.424;2022-12-10T10:57:01;23.70;39.30
22290;DHT22;11313;50.116;8.424;2022-12-10T10:59:32;23.70;39.20
22290;DHT22;11313;50.116;8.424;2022-12-10T11:02:02;23.70;39.70
22290;DHT22;11313;50.116;8.424;2022-12-10T11:04:30;23.70;40.00
22290;DHT22;11313;50.116;8.424;2022-12-10T11:07:02;23.70;40.20
22290;DHT22;11313;50.116;8.424;2022-12-10T11:09:29;23.70;40.20
22290;DHT22;11313;50.116;8.424;2022-12-10T11:12:02;23.70;40.30
22290;DHT22;11313;50.116;8.424;2022-12-10T11:14:32;23.70;40.40
22290;DHT22;11313;50.116;8.424;2022-12-10T11:17:08;23.80;40.50
22290;DHT22;11313;50.116;8.424;2022-12-10T11:22:21;23.80;40.50
22290;DHT22;11313;50.116;8.424;2022-12-10T11:24:47;23.70;40.50
22290;DHT22;11313;50.116;8.424;2022-12-10T11:27:16;23.70;40.60
22290;DHT22;11313;50.116;8.424;2022-12-10T11:30:09;23.70;40.70
22290;DHT22;11313;50.116;8.424;2022-12-10T11:32:38;23.70;40.70
22290;DHT22;11313;50.116;8.424;2022-12-10T11:37:55;23.80;40.70
22290;DHT22;11313;50.116;8.424;2022-12-10T11:43:12;23.80;40.70
22290;DHT22;11313;50.116;8.424;2022-12-10T11:45:44;23.80;40.80
22290;DHT22;11313;50.116;8.424;2022-12-10T11:50:49;23.80;40.80
22290;DHT22;11313;50.116;8.424;2022-12-10T11:58:17;23.80;41.10
22290;DHT22;11313;50.116;8.424;2022-12-10T12:00:51;23.80;41.10
22290;DHT22;11313;50.116;8.424;2022-12-10T12:03:32;23.80;41.20
22290;DHT22;11313;50.116;8.424;2022-12-10T12:11:15;23.80;41.20
22290;DHT22;11313;50.116;8.424;2022-12-10T12:16:19;23.80;41.20
22290;DHT22;11313;50.116;8.424;2022-12-10T12:18:55;23.80;41.20
22290;DHT22;11313;50.116;8.424;2022-12-10T12:21:23;23.80;41.20
22290;DHT22;11313;50.116;8.424;2022-12-10T12:26:17;23.80;41.30
22290;DHT22;11313;50.116;8.424;2022-12-10T12:28:50;23.80;42.00
22290;DHT22;11313;50.116;8.424;2022-12-10T12:31:24;23.80;41.30
22290;DHT22;11313;50.116;8.424;2022-12-10T12:34:01;23.80;41.20
22290;DHT22;11313;50.116;8.424;2022-12-10T12:36:29;23.80;41.30
22290;DHT22;11313;50.116;8.424;2022-12-10T12:39:01;23.80;41.30
22290;DHT22;11313;50.116;8.424;2022-12-10T12:41:49;23.90;41.40
22290;DHT22;11313;50.116;8.424;2022-12-10T12:44:18;23.90;41.50
22290;DHT22;11313;50.116;8.424;2022-12-10T12:46:45;23.90;41.50
22290;DHT22;11313;50.116;8.424;2022-12-10T12:49:27;23.90;41.50
22290;DHT22;11313;50.116;8.424;2022-12-10T12:52:00;23.90;41.50
22290;DHT22;11313;50.116;8.424;2022-12-10T12:54:26;23.90;41.50
22290;DHT22;11313;50.116;8.424;2022-12-10T12:59:37;23.90;41.50
22290;DHT22;11313;50.116;8.424;2022-12-10T13:04:51;23.90;41.50
22290;DHT22;11313;50.116;8.424;2022-12-10T13:09:46;23.90;41.40
22290;DHT22;11313;50.116;8.424;2022-12-10T13:17:35;23.90;41.30
22290;DHT22;11313;50.116;8.424;2022-12-10T13:22:54;24.00;41.40
22290;DHT22;11313;50.116;8.424;2022-12-10T13:25:20;24.00;41.50
22290;DHT22;11313;50.116;8.424;2022-12-10T13:28:15;24.00;41.40
22290;DHT22;11313;50.116;8.424;2022-12-10T13:30:41;23.90;41.40
22290;DHT22;11313;50.116;8.424;2022-12-10T13:33:17;24.00;41.40
22290;DHT22;11313;50.116;8.424;2022-12-10T13:35:57;24.00;41.30
22290;DHT22;11313;50.116;8.424;2022-12-10T13:38:24;24.00;41.30
22290;DHT22;11313;50.116;8.424;2022-12-10T13:40:59;23.90;41.20
22290;DHT22;11313;50.116;8.424;2022-12-10T13:43:51;23.90;41.20
22290;DHT22;11313;50.116;8.424;2022-12-10T13:46:52;23.90;41.10
22290;DHT22;11313;50.116;8.424;2022-12-10T13:49:28;23.90;41.10
22290;DHT22;11313;50.116;8.424;2022-12-10T13:51:58;23.90;41.00
22290;DHT22;11313;50.116;8.424;2022-12-10T13:54:29;23.90;41.00
22290;DHT22;11313;50.116;8.424;2022-12-10T13:59:47;23.90;40.80
22290;DHT22;11313;50.116;8.424;2022-12-10T14:05:12;23.90;40.90
22290;DHT22;11313;50.116;8.424;2022-12-10T14:07:39;23.90;40.90
22290;DHT22;11313;50.116;8.424;2022-12-10T14:10:07;23.90;40.90
22290;DHT22;11313;50.116;8.424;2022-12-10T14:12:37;23.90;40.90
22290;DHT22;11313;50.116;8.424;2022-12-10T14:15:05;23.90;40.90
22290;DHT22;11313;50.116;8.424;2022-12-10T14:17:36;23.90;41.50
22290;DHT22;11313;50.116;8.424;2022-12-10T14:20:03;23.90;40.90
22290;DHT22;11313;50.116;8.424;2022-12-10T14:22:33;23.90;40.90
22290;DHT22;11313;50.116;8.424;2022-12-10T14:25:00;23.80;40.90
22290;DHT22;11313;50.116;8.424;2022-12-10T14:27:26;23.80;41.00
22290;DHT22;11313;50.116;8.424;2022-12-10T14:29:57;23.90;41.00
22290;DHT22;11313;50.116;8.424;2022-12-10T14:32:25;23.80;41.00
22290;DHT22;11313;50.116;8.424;2022-12-10T14:34:54;23.90;40.90
22290;DHT22;11313;50.116;8.424;2022-12-10T14:37:23;23.80;41.00
22290;DHT22;11313;50.116;8.424;2022-12-10T14:39:49;23.80;41.00
22290;DHT22;11313;50.116;8.424;2022-12-10T14:42:15;23.90;41.00
22290;DHT22;11313;50.116;8.424;2022-12-10T14:44:41;23.80;41.00
22290;DHT22;11313;50.116;8.424;2022-12-10T14:47:12;23.80;41.00
22290;DHT22;11313;50.116;8.424;2022-12-10T14:49:38;23.80;41.00
22290;DHT22;11313;50.116;8.424;2022-12-10T14:52:09;23.80;41.00
22290;DHT22;11313;50.116;8.424;2022-12-10T14:54:35;23.80;41.00
22290;DHT22;11313;50.116;8.424;2022-12-10T14:57:01;23.80;41.10
22290;DHT22;11313;50.116;8.424;2022-12-10T14:59:47;23.80;41.10
22290;DHT22;11313;50.116;8.424;2022-12-10T15:02:30;23.80;41.10
22290;DHT22;11313;50.116;8.424;2022-12-10T15:04:56;23.80;41.20
22290;DHT22;11313;50.116;8.424;2022-12-10T15:07:22;23.80;41.30
22290;DHT22;11313;50.116;8.424;2022-12-10T15:09:49;23.80;41.30
22290;DHT22;11313;50.116;8.424;2022-12-10T15:12:19;23.70;41.40
22290;DHT22;11313;50.116;8.424;2022-12-10T15:14:47;23.80;41.40
22290;DHT22;11313;50.116;8.424;2022-12-10T15:17:32;23.80;41.50
22290;DHT22;11313;50.116;8.424;2022-12-10T15:19:58;23.80;41.50
22290;DHT22;11313;50.116;8.424;2022-12-10T15:22:24;23.70;41.50
22290;DHT22;11313;50.116;8.424;2022-12-10T15:24:51;23.80;41.50
22290;DHT22;11313;50.116;8.424;2022-12-10T15:27:22;23.80;41.50
22290;DHT22;11313;50.116;8.424;2022-12-10T15:29:47;23.80;41.60
22290;DHT22;11313;50.116;8.424;2022-12-10T15:32:14;23.80;41.70
22290;DHT22;11313;50.116;8.424;2022-12-10T15:34:46;23.70;41.70
22290;DHT22;11313;50.116;8.424;2022-12-10T15:37:26;23.70;41.70
22290;DHT22;11313;50.116;8.424;2022-12-10T15:39:53;23.80;41.90
22290;DHT22;11313;50.116;8.424;2022-12-10T15:44:55;23.80;41.90
22290;DHT22;11313;50.116;8.424;2022-12-10T15:47:22;23.80;41.90
22290;DHT22;11313;50.116;8.424;2022-12-10T15:49:48;23.80;41.80
22290;DHT22;11313;50.116;8.424;2022-12-10T15:54:40;23.80;41.80
22290;DHT22;11313;50.116;8.424;2022-12-10T15:57:12;23.80;41.80
22290;DHT22;11313;50.116;8.424;2022-12-10T15:59:39;23.80;41.70
22290;DHT22;11313;50.116;8.424;2022-12-10T16:02:09;23.80;41.70
22290;DHT22;11313;50.116;8.424;2022-12-10T16:04:40;23.70;41.70
22290;DHT22;11313;50.116;8.424;2022-12-10T16:07:07;23.80;41.70
22290;DHT22;11313;50.116;8.424;2022-12-10T16:09:32;23.80;41.80
22290;DHT22;11313;50.116;8.424;2022-12-10T16:11:58;23.80;41.80
22290;DHT22;11313;50.116;8.424;2022-12-10T16:14:24;23.80;41.70
22290;DHT22;11313;50.116;8.424;2022-12-10T16:16:49;23.80;41.70
22290;DHT22;11313;50.116;8.424;2022-12-10T16:19:15;23.80;41.70
22290;DHT22;11313;50.116;8.424;2022-12-10T16:21:40;23.80;41.70
22290;DHT22;11313;50.116;8.424;2022-12-10T16:24:06;23.80;41.70
22290;DHT22;11313;50.116;8.424;2022-12-10T16:26:31;23.80;41.70
22290;DHT22;11313;50.116;8.424;2022-12-10T16:28:57;23.80;41.70
22290;DHT22;11313;50.116;8.424;2022-12-10T16:31:22;23.80;41.70
22290;DHT22;11313;50.116;8.424;2022-12-10T16:33:48;23.80;41.70
22290;DHT22;11313;50.116;8.424;2022-12-10T16:36:16;23.80;41.70
22290;DHT22;11313;50.116;8.424;2022-12-10T16:38:42;23.80;41.70
22290;DHT22;11313;50.116;8.424;2022-12-10T16:41:15;23.80;41.70
22290;DHT22;11313;50.116;8.424;2022-12-10T16:43:40;23.80;41.70
22290;DHT22;11313;50.116;8.424;2022-12-10T16:46:06;23.80;41.70
22290;DHT22;11313;50.116;8.424;2022-12-10T16:48:31;23.80;41.60
22290;DHT22;11313;50.116;8.424;2022-12-10T16:50:57;23.80;41.70
22290;DHT22;11313;50.116;8.424;2022-12-10T16:53:24;23.80;41.70